Time,TemperatureF,DewpointF,PressureIn,WindDirection,WindDirectionDegrees,WindSpeedMPH,WindSpeedGustMPH,Humidity,HourlyPrecipIn,Conditions,Clouds,dailyrainin,SoftwareType,DateUTC
2013-06-24 00:01:00,71.1,71.1,30.04,NW,312,5.5,12.4,100,0.00,,BKN250,0.00,VWS V14.01,2013-06-24 04:01:00,
2013-06-24 00:03:00,71.0,71.0,30.04,WSW,245,5.1,6.4,100,0.00,,BKN250,0.00,VWS V14.01,2013-06-24 04:03:00,
2013-06-24 00:07:00,70.9,70.9,30.04,West,263,4.3,8.7,100,0.00,,BKN250,0.00,VWS V14.01,2013-06-24 04:07:00,
2013-06-24 00:09:00,70.9,70.9,30.04,North,0,6.4,10.1,100,0.00,,BKN250,0.00,VWS V14.01,2013-06-24 04:09:00,
2013-06-24 00:11:00,70.9,70.9,30.04,North,357,4.7,9.0,100,0.00,,BKN250,0.00,VWS V14.01,2013-06-24 04:11:00,
2013-06-24 00:17:00,70.9,70.9,30.04,WNW,295,6.2,11.3,100,0.00,,BKN250,0.00,VWS V14.01,2013-06-24 04:17:00,
2013-06-24 00:23:00,70.8,70.8,30.04,NW,304,5.2,10.5,100,0.00,,BKN250,0.00,VWS V14.01,2013-06-24 04:23:00,
2013-06-24 00:29:00,70.6,70.6,30.04,WNW,295,5.8,9.8,100,0.00,,BKN250,0.00,VWS V14.01,2013-06-24 04:29:00,
2013-06-24 00:35:00,70.7,70.7,30.04,WNW,295,5.2,9.4,100,0.00,,BKN250,0.00,VWS V14.01,2013-06-24 04:35:00,
2013-06-24 00:41:00,70.5,70.5,30.04,NW,304,6.7,9.8,100,0.00,,BKN250,0.00,VWS V14.01,2013-06-24 04:41:00,
2013-06-24 00:47:00,70.5,70.5,30.04,West,269,4.4,8.2,100,0.00,,BKN250,0.00,VWS V14.01,2013-06-24 04:47:00,
2013-06-24 00:53:00,70.5,70.5,30.04,WSW,243,8.2,11.9,100,0.00,,BKN250,0.00,VWS V14.01,2013-06-24 04:53:00,
2013-06-24 00:59:00,70.5,70.5,30.03,North,356,5.7,8.1,100,0.00,,BKN250,0.00,VWS V14.01,2013-06-24 04:59:00,
2013-06-24 01:05:00,70.4,70.4,30.03,North,10,8.5,8.5,100,0.00,,BKN250,0.00,VWS V14.01,2013-06-24 05:05:00,
2013-06-24 01:11:00,70.4,70.4,30.03,WSW,255,3.8,9.0,100,0.00,,BKN250,0.00,VWS V14.01,2013-06-24 05:11:00,
2013-06-24 01:17:00,70.2,70.2,30.03,NNE,25,3.4,9.0,100,0.00,,BKN250,0.00,VWS V14.01,2013-06-24 05:17:00,
2013-06-24 01:23:00,70.2,70.2,30.03,WNW,297,7.5,9.6,100,0.00,,BKN250,0.00,VWS V14.01,2013-06-24 05:23:00,
2013-06-24 01:30:00,70.3,70.3,30.03,WSW,246,5.1,9.8,100,0.00,,BKN250,0.00,VWS V14.01,2013-06-24 05:30:00,
2013-06-24 01:35:00,70.1,70.1,30.03,West,270,6.8,10.0,100,0.00,,BKN250,0.00,VWS V14.01,2013-06-24 05:35:00,
2013-06-24 01:43:00,70.0,70.0,30.03,NNW,328,8.2,9.5,100,0.00,,BKN250,0.00,VWS V14.01,2013-06-24 05:43:00,
2013-06-24 01:49:00,69.8,69.8,30.03,WNW,297,5.0,9.8,100,0.00,,BKN250,0.00,VWS V14.01,2013-06-24 05:49:00,
2013-06-24 01:55:00,69.8,69.8,30.03,NW,308,5.8,10.3,100,0.00,,BKN250,0.00,VWS V14.01,2013-06-24 05:55:00,
2013-06-24 02:01:00,69.7,69.7,30.02,NNE,25,4.2,7.9,100,0.00,,BKN250,0.00,VWS V14.01,2013-06-24 06:01:00,
2013-06-24 02:07:00,69.6,69.6,30.02,West,280,5.3,6.2,100,0.00,,BKN250,0.00,VWS V14.01,2013-06-24 06:07:00,
2013-06-24 02:13:00,69.5,69.5,30.02,WNW,302,5.2,8.1,100,0.00,,BKN250,0.00,VWS V14.01,2013-06-24 06:13:00,
2013-06-24 02:19:00,69.5,69.5,30.02,SW,228,6.0,6.7,100,0.00,,BKN250,0.00,VWS V14.01,2013-06-24 06:19:00,
2013-06-24 02:25:00,69.5,69.5,30.02,WNW,290,5.4,7.7,100,0.00,,BKN250,0.00,VWS V14.01,2013-06-24 06:25:00,
2013-06-24 02:31:00,69.5,69.5,30.02,NW,311,7.2,11.3,100,0.00,,BKN250,0.00,VWS V14.01,2013-06-24 06:31:00,
2013-06-24 02:39:00,69.5,69.5,30.02,NW,319,4.1,6.4,100,0.00,,BKN250,0.00,VWS V14.01,2013-06-24 06:39:00,
2013-06-24 02:45:00,69.5,69.5,30.02,West,278,3.8,8.6,100,0.00,,BKN250,0.00,VWS V14.01,2013-06-24 06:45:00,
2013-06-24 02:51:00,69.5,69.5,30.02,WNW,294,5.5,8.0,100,0.00,,BKN250,0.00,VWS V14.01,2013-06-24 06:51:00,
2013-06-24 02:57:00,69.4,69.4,30.02,NW,312,5.5,7.3,100,0.00,,BKN250,0.00,VWS V14.01,2013-06-24 06:57:00,
2013-06-24 03:03:00,69.4,69.4,30.01,WNW,284,5.5,6.5,100,0.00,,SCT250,0.00,VWS V14.01,2013-06-24 07:03:00,
2013-06-24 03:09:00,69.4,69.4,30.01,NE,49,3.7,8.5,100,0.00,,SCT250,0.00,VWS V14.01,2013-06-24 07:09:00,
2013-06-24 03:15:00,69.4,69.4,30.02,WNW,291,3.9,7.5,100,0.00,,SCT250,0.00,VWS V14.01,2013-06-24 07:15:00,
2013-06-24 03:21:00,69.5,69.5,30.02,NW,326,6.3,7.2,100,0.00,,SCT250,0.00,VWS V14.01,2013-06-24 07:21:00,
2013-06-24 03:27:00,69.4,69.4,30.02,NW,316,4.8,8.8,100,0.00,,SCT250,0.00,VWS V14.01,2013-06-24 07:27:00,
2013-06-24 03:33:00,69.4,69.4,30.01,WNW,283,4.4,7.3,100,0.00,,SCT250,0.00,VWS V14.01,2013-06-24 07:33:00,
2013-06-24 03:39:00,69.3,69.3,30.01,NNW,332,5.2,8.3,100,0.00,,SCT250,0.00,VWS V14.01,2013-06-24 07:39:00,
2013-06-24 03:45:00,69.3,69.3,30.01,West,262,4.3,6.7,100,0.00,,SCT250,0.00,VWS V14.01,2013-06-24 07:45:00,
2013-06-24 03:51:00,69.5,69.5,30.01,WNW,292,6.6,8.4,100,0.00,,SCT250,0.00,VWS V14.01,2013-06-24 07:51:00,
2013-06-24 03:57:00,69.3,69.3,30.01,NNW,340,4.7,10.0,100,0.00,,SCT250,0.00,VWS V14.01,2013-06-24 07:57:00,
2013-06-24 04:03:00,69.3,69.3,30.01,WNW,288,4.4,6.4,100,0.00,,BKN250,0.00,VWS V14.01,2013-06-24 08:03:00,
2013-06-24 04:09:00,69.4,69.4,30.01,NNW,347,4.8,9.7,100,0.00,,BKN250,0.00,VWS V14.01,2013-06-24 08:09:00,
2013-06-24 04:15:00,69.2,69.2,30.00,West,281,4.9,6.7,100,0.00,,BKN250,0.00,VWS V14.01,2013-06-24 08:15:00,
2013-06-24 04:21:00,69.0,69.0,30.00,SW,225,5.9,8.9,100,0.00,,BKN250,0.00,VWS V14.01,2013-06-24 08:21:00,
2013-06-24 04:27:00,69.1,69.1,30.00,WNW,297,4.9,7.3,100,0.00,,BKN250,0.00,VWS V14.01,2013-06-24 08:27:00,
2013-06-24 04:34:00,69.0,69.0,30.00,West,277,6.5,6.5,100,0.00,,BKN250,0.00,VWS V14.01,2013-06-24 08:34:00,
2013-06-24 04:39:00,68.9,68.9,30.00,WSW,238,3.9,6.0,100,0.00,,BKN250,0.00,VWS V14.01,2013-06-24 08:39:00,
2013-06-24 04:45:00,69.0,69.0,30.00,WSW,250,2.5,4.9,100,0.00,,BKN250,0.00,VWS V14.01,2013-06-24 08:45:00,
2013-06-24 04:51:00,68.9,68.9,29.99,ESE,120,3.5,11.1,100,0.00,,BKN250,0.00,VWS V14.01,2013-06-24 08:51:00,
2013-06-24 04:57:00,68.9,68.9,29.99,WNW,287,3.5,8.4,100,0.00,,BKN250,0.00,VWS V14.01,2013-06-24 08:57:00,
2013-06-24 05:05:00,68.7,68.7,29.99,West,278,5.5,6.2,100,0.00,,SCT250,0.00,VWS V14.01,2013-06-24 09:05:00,
2013-06-24 05:17:00,68.7,68.7,29.99,WNW,298,5.9,9.4,100,0.00,,SCT250,0.00,VWS V14.01,2013-06-24 09:17:00,
2013-06-24 05:23:00,68.8,68.8,29.99,NW,321,4.9,8.7,100,0.00,,SCT250,0.00,VWS V14.01,2013-06-24 09:23:00,
2013-06-24 05:29:00,68.9,68.9,29.99,West,280,6.1,6.4,100,0.00,,SCT250,0.00,VWS V14.01,2013-06-24 09:29:00,
2013-06-24 05:37:00,69.0,69.0,29.98,WNW,283,2.5,5.5,100,0.00,,SCT250,0.00,VWS V14.01,2013-06-24 09:37:00,
2013-06-24 05:43:00,69.1,69.1,29.98,WSW,252,6.0,7.4,100,0.00,,SCT250,0.00,VWS V14.01,2013-06-24 09:43:00,
2013-06-24 05:49:00,69.2,69.2,29.98,WSW,242,2.5,4.9,100,0.00,,SCT250,0.00,VWS V14.01,2013-06-24 09:49:00,
2013-06-24 05:55:00,69.3,69.3,29.99,WNW,297,5.2,7.5,100,0.00,,SCT250,0.00,VWS V14.01,2013-06-24 09:55:00,
2013-06-24 06:01:00,69.3,69.3,29.98,West,262,4.8,7.8,100,0.00,,SCT250,0.00,VWS V14.01,2013-06-24 10:01:00,
2013-06-24 06:07:00,69.5,69.5,29.98,WSW,245,3.4,6.3,100,0.00,,SCT250,0.00,VWS V14.01,2013-06-24 10:07:00,
2013-06-24 06:14:00,69.5,69.5,29.99,WNW,283,7.2,7.3,100,0.00,,SCT250,0.00,VWS V14.01,2013-06-24 10:14:00,
2013-06-24 06:19:00,69.7,69.7,29.99,SSW,208,5.3,8.7,100,0.00,,SCT250,0.00,VWS V14.01,2013-06-24 10:19:00,
2013-06-24 06:25:00,69.8,69.8,29.99,East,89,4.3,7.8,100,0.00,,SCT250,0.00,VWS V14.01,2013-06-24 10:25:00,
2013-06-24 06:31:00,70.1,70.1,29.99,West,280,5.3,5.5,100,0.00,,SCT250,0.00,VWS V14.01,2013-06-24 10:31:00,
2013-06-24 06:37:00,70.3,70.3,29.99,SSW,204,5.4,6.2,100,0.00,,SCT250,0.00,VWS V14.01,2013-06-24 10:37:00,
2013-06-24 06:43:00,70.5,70.5,29.99,WNW,298,6.3,7.0,100,0.00,,SCT250,0.00,VWS V14.01,2013-06-24 10:43:00,
2013-06-24 06:49:00,70.7,70.7,29.99,West,266,4.1,6.6,100,0.00,,SCT250,0.00,VWS V14.01,2013-06-24 10:49:00,
2013-06-24 06:57:00,70.9,70.9,29.99,WNW,290,3.7,7.6,100,0.00,,SCT250,0.00,VWS V14.01,2013-06-24 10:57:00,
2013-06-24 07:03:00,71.3,71.3,29.99,East,94,4.4,8.2,100,0.00,,SCT250,0.00,VWS V14.01,2013-06-24 11:03:00,
2013-06-24 07:10:00,71.6,71.6,29.99,NW,311,4.1,11.6,100,0.00,,SCT250,0.00,VWS V14.01,2013-06-24 11:10:00,
2013-06-24 07:15:00,72.0,72.0,29.99,NNE,15,5.4,7.0,100,0.00,,SCT250,0.00,VWS V14.01,2013-06-24 11:15:00,
2013-06-24 07:23:00,72.3,72.3,29.99,NNE,15,4.4,9.0,100,0.00,,SCT250,0.00,VWS V14.01,2013-06-24 11:23:00,
2013-06-24 07:30:00,72.6,72.6,29.99,WSW,245,7.5,8.7,100,0.00,,SCT250,0.00,VWS V14.01,2013-06-24 11:30:00,
2013-06-24 07:37:00,73.0,73.0,29.99,ENE,65,4.2,9.0,100,0.00,,SCT250,0.00,VWS V14.01,2013-06-24 11:37:00,
2013-06-24 07:43:00,73.0,73.0,30.00,WSW,252,8.4,11.7,100,0.00,,SCT250,0.00,VWS V14.01,2013-06-24 11:43:00,
2013-06-24 07:51:00,73.5,73.5,30.00,North,1,5.2,6.7,100,0.00,,SCT250,0.00,VWS V14.01,2013-06-24 11:51:00,
2013-06-24 07:57:00,73.5,73.5,30.00,NW,314,3.5,6.2,100,0.00,,SCT250,0.00,VWS V14.01,2013-06-24 11:57:00,
2013-06-24 08:10:00,74.2,74.2,30.00,WNW,294,4.8,8.0,100,0.00,,SCT160,0.00,VWS V14.01,2013-06-24 12:10:00,
2013-06-24 08:15:00,74.4,74.4,30.00,WNW,290,4.8,7.6,100,0.00,,SCT160,0.00,VWS V14.01,2013-06-24 12:15:00,
2013-06-24 08:21:00,75.1,75.1,30.00,North,1,5.7,6.4,100,0.00,,SCT160,0.00,VWS V14.01,2013-06-24 12:21:00,
2013-06-24 08:27:00,75.3,75.3,29.99,NW,318,3.0,5.1,100,0.00,,SCT160,0.00,VWS V14.01,2013-06-24 12:27:00,
2013-06-24 08:33:00,75.3,75.3,29.99,NW,319,8.0,8.2,100,0.00,,SCT160,0.00,VWS V14.01,2013-06-24 12:33:00,
2013-06-24 08:39:00,76.0,75.6,29.99,WNW,287,6.0,8.5,98,0.00,,SCT160,0.00,VWS V14.01,2013-06-24 12:39:00,
2013-06-24 08:46:00,76.8,76.1,29.99,WSW,246,7.0,8.8,98,0.00,,SCT160,0.00,VWS V14.01,2013-06-24 12:46:00,
2013-06-24 08:51:00,78.2,77.0,29.99,WNW,292,5.4,6.4,96,0.00,,SCT160,0.00,VWS V14.01,2013-06-24 12:51:00,
2013-06-24 08:57:00,79.4,77.7,29.99,WNW,300,4.6,8.8,95,0.00,,SCT160,0.00,VWS V14.01,2013-06-24 12:57:00,
2013-06-24 09:03:00,79.3,77.3,29.98,NNE,15,4.1,6.2,94,0.00,,FEW300,0.00,VWS V14.01,2013-06-24 13:03:00,
2013-06-24 09:10:00,80.5,77.3,29.99,NNE,25,3.6,6.0,90,0.00,,FEW300,0.00,VWS V14.01,2013-06-24 13:10:00,
2013-06-24 09:15:00,81.1,77.3,29.99,NW,305,4.4,7.3,88,0.00,,FEW300,0.00,VWS V14.01,2013-06-24 13:15:00,
2013-06-24 09:21:00,81.4,76.8,29.98,West,277,4.1,8.3,86,0.00,,FEW300,0.00,VWS V14.01,2013-06-24 13:21:00,
2013-06-24 09:27:00,81.5,76.4,29.98,NNE,32,3.9,9.6,84,0.00,,FEW300,0.00,VWS V14.01,2013-06-24 13:27:00,
2013-06-24 09:33:00,82.5,76.4,29.98,West,277,3.4,7.1,82,0.00,,FEW300,0.00,VWS V14.01,2013-06-24 13:33:00,
2013-06-24 09:39:00,82.4,75.4,29.98,WNW,300,6.0,6.2,80,0.00,,FEW300,0.00,VWS V14.01,2013-06-24 13:39:00,
2013-06-24 09:45:00,82.5,75.4,29.98,WNW,298,2.5,9.1,79,0.00,,FEW300,0.00,VWS V14.01,2013-06-24 13:45:00,
2013-06-24 09:51:00,83.2,74.4,29.98,WNW,300,4.1,9.0,75,0.00,,FEW300,0.00,VWS V14.01,2013-06-24 13:51:00,
2013-06-24 09:58:00,83.4,75.1,29.97,NW,312,5.4,10.0,76,0.00,,FEW300,0.00,VWS V14.01,2013-06-24 13:58:00,
2013-06-24 10:03:00,83.9,74.9,29.97,West,264,6.0,8.2,74,0.00,,CLR,0.00,VWS V14.01,2013-06-24 14:03:00,
2013-06-24 10:09:00,84.5,77.3,29.97,North,4,2.5,4.9,79,0.00,,CLR,0.00,VWS V14.01,2013-06-24 14:09:00,
2013-06-24 10:16:00,84.7,75.1,29.97,North,354,4.0,10.7,73,0.00,,CLR,0.00,VWS V14.01,2013-06-24 14:16:00,
2013-06-24 10:22:00,84.2,74.8,29.97,North,359,5.0,8.1,74,0.00,,CLR,0.00,VWS V14.01,2013-06-24 14:22:00,
2013-06-24 10:27:00,85.3,76.2,29.97,West,264,5.5,6.0,74,0.00,,CLR,0.00,VWS V14.01,2013-06-24 14:27:00,
2013-06-24 10:33:00,87.7,74.4,29.97,WSW,255,9.3,10.0,65,0.00,,CLR,0.00,VWS V14.01,2013-06-24 14:33:00,
2013-06-24 10:41:00,86.1,72.7,29.97,SSE,153,3.7,9.2,64,0.00,,CLR,0.00,VWS V14.01,2013-06-24 14:41:00,
2013-06-24 10:50:00,88.7,73.7,29.97,WSW,252,2.5,8.3,61,0.00,,CLR,0.00,VWS V14.01,2013-06-24 14:50:00,
2013-06-24 10:59:00,88.0,74.4,29.97,North,6,4.5,5.9,64,0.00,,CLR,0.00,VWS V14.01,2013-06-24 14:59:00,
2013-06-24 11:07:00,90.1,73.2,29.96,SW,215,2.5,6.0,58,0.00,,CLR,0.00,VWS V14.01,2013-06-24 15:07:00,
2013-06-24 11:14:00,88.9,73.0,29.96,NW,312,5.4,8.3,60,0.00,,CLR,0.00,VWS V14.01,2013-06-24 15:14:00,
2013-06-24 11:19:00,89.6,71.8,29.96,WSW,256,5.9,7.2,56,0.00,,CLR,0.00,VWS V14.01,2013-06-24 15:19:00,
2013-06-24 11:25:00,89.5,71.9,29.96,NNE,27,4.4,6.9,56,0.00,,CLR,0.00,VWS V14.01,2013-06-24 15:25:00,
2013-06-24 11:31:00,90.9,72.6,29.95,West,278,3.1,6.7,55,0.00,,CLR,0.00,VWS V14.01,2013-06-24 15:31:00,
2013-06-24 11:39:00,90.9,71.2,29.95,West,276,5.0,7.3,53,0.00,,CLR,0.00,VWS V14.01,2013-06-24 15:39:00,
2013-06-24 11:45:00,90.9,70.6,29.95,SW,222,5.5,10.8,52,0.00,,CLR,0.00,VWS V14.01,2013-06-24 15:45:00,
2013-06-24 11:51:00,90.2,69.9,29.95,WNW,301,4.2,5.9,51,0.00,,CLR,0.00,VWS V14.01,2013-06-24 15:51:00,
2013-06-24 11:57:00,91.2,70.6,29.96,SW,235,4.2,5.5,51,0.00,,CLR,0.00,VWS V14.01,2013-06-24 15:57:00,
2013-06-24 12:06:00,90.5,69.3,29.96,West,259,4.9,8.1,50,0.00,,CLR,0.00,VWS V14.01,2013-06-24 16:06:00,
2013-06-24 12:11:00,90.5,70.2,29.95,NW,321,3.1,6.9,52,0.00,,CLR,0.00,VWS V14.01,2013-06-24 16:11:00,
2013-06-24 12:17:00,91.0,72.0,29.95,East,83,2.5,4.6,54,0.00,,FEW160,0.00,VWS V14.01,2013-06-24 16:17:00,
2013-06-24 12:23:00,92.1,70.0,29.95,NNW,333,3.6,8.8,49,0.00,,FEW160,0.00,VWS V14.01,2013-06-24 16:23:00,
2013-06-24 12:29:00,92.3,70.3,29.95,NNW,342,4.2,7.2,49,0.00,,FEW160,0.00,VWS V14.01,2013-06-24 16:29:00,
2013-06-24 12:35:00,92.9,68.1,29.95,WNW,284,8.2,8.6,44,0.00,,FEW160,0.00,VWS V14.01,2013-06-24 16:35:00,
2013-06-24 12:43:00,92.3,67.9,29.95,WNW,294,5.5,9.0,45,0.00,,FEW160,0.00,VWS V14.01,2013-06-24 16:43:00,
2013-06-24 12:49:00,92.7,68.5,29.95,NW,307,4.9,9.4,45,0.00,,FEW160,0.00,VWS V14.01,2013-06-24 16:49:00,
2013-06-24 12:55:00,92.2,65.8,29.95,WSW,246,4.0,7.2,42,0.00,,FEW160,0.00,VWS V14.01,2013-06-24 16:55:00,
2013-06-24 13:02:00,92.1,66.9,29.95,NNE,13,2.5,6.5,44,0.00,,FEW045,0.00,VWS V14.01,2013-06-24 17:02:00,
2013-06-24 13:10:00,92.7,67.2,29.95,West,280,5.0,9.3,43,0.00,,FEW045,0.00,VWS V14.01,2013-06-24 17:10:00,
2013-06-24 13:17:00,92.1,67.6,29.95,WNW,298,7.7,7.7,45,0.00,,FEW045,0.00,VWS V14.01,2013-06-24 17:17:00,
2013-06-24 13:23:00,93.1,67.5,29.94,NW,304,7.2,9.2,43,0.00,,FEW045,0.00,VWS V14.01,2013-06-24 17:23:00,
2013-06-24 13:29:00,93.5,69.0,29.94,West,262,5.3,8.9,45,0.00,,FEW045,0.00,VWS V14.01,2013-06-24 17:29:00,
2013-06-24 13:36:00,92.9,67.5,29.94,NNW,335,3.0,6.3,44,0.00,,FEW045,0.00,VWS V14.01,2013-06-24 17:36:00,
2013-06-24 13:41:00,92.9,65.8,29.94,SSW,211,5.3,8.2,41,0.00,,FEW045,0.00,VWS V14.01,2013-06-24 17:41:00,
2013-06-24 13:50:00,92.9,64.8,29.94,NW,323,3.4,10.1,40,0.00,,FEW045,0.00,VWS V14.01,2013-06-24 17:50:00,
2013-06-24 13:58:00,93.7,65.2,29.94,West,281,6.7,6.9,39,0.00,,FEW045,0.00,VWS V14.01,2013-06-24 17:58:00,
2013-06-24 14:04:00,92.9,67.9,29.94,West,262,3.9,8.1,44,0.00,,SCT200,0.00,VWS V14.01,2013-06-24 18:04:00,
2013-06-24 14:11:00,94.3,65.9,29.93,WNW,294,4.8,7.1,40,0.00,,SCT200,0.00,VWS V14.01,2013-06-24 18:11:00,
2013-06-24 14:17:00,94.8,65.5,29.93,WNW,301,4.1,5.7,38,0.00,,SCT200,0.00,VWS V14.01,2013-06-24 18:17:00,
2013-06-24 14:23:00,93.9,64.5,29.92,WSW,246,3.2,6.2,38,0.00,,SCT200,0.00,VWS V14.01,2013-06-24 18:23:00,
2013-06-24 14:29:00,95.1,64.9,29.92,WSW,245,3.9,8.2,37,0.00,,SCT200,0.00,VWS V14.01,2013-06-24 18:29:00,
2013-06-24 14:38:00,92.9,67.3,29.92,SW,225,2.5,6.2,43,0.00,,SCT200,0.00,VWS V14.01,2013-06-24 18:38:00,
2013-06-24 14:44:00,93.0,65.5,29.92,SSW,204,3.9,8.8,40,0.00,,SCT200,0.00,VWS V14.01,2013-06-24 18:44:00,
2013-06-24 14:50:00,90.9,66.2,29.92,SSE,149,6.2,8.5,44,0.00,,SCT200,0.00,VWS V14.01,2013-06-24 18:50:00,
2013-06-24 14:56:00,91.9,65.2,29.92,West,260,7.1,9.1,42,0.00,,SCT200,0.00,VWS V14.01,2013-06-24 18:56:00,
2013-06-24 15:02:00,90.9,68.4,29.92,SW,233,2.5,4.5,48,0.00,,SCT200,0.00,VWS V14.01,2013-06-24 19:02:00,
2013-06-24 15:07:00,91.0,68.7,29.92,WSW,250,3.8,4.2,48,0.00,,SCT200,0.00,VWS V14.01,2013-06-24 19:07:00,
2013-06-24 15:13:00,90.8,64.6,29.92,WNW,288,7.2,10.8,42,0.00,,SCT200,0.00,VWS V14.01,2013-06-24 19:13:00,
2013-06-24 15:19:00,90.9,67.9,29.91,WNW,285,5.4,5.4,47,0.00,,SCT200,0.00,VWS V14.01,2013-06-24 19:19:00,
2013-06-24 15:25:00,91.5,64.6,29.91,WSW,257,5.6,5.6,41,0.00,,SCT200,0.00,VWS V14.01,2013-06-24 19:25:00,
2013-06-24 15:31:00,90.6,65.8,29.91,NNE,15,4.7,5.5,44,0.00,,SCT200,0.00,VWS V14.01,2013-06-24 19:31:00,
2013-06-24 15:38:00,89.8,66.4,29.91,North,359,3.4,6.6,46,0.00,,SCT200,0.00,VWS V14.01,2013-06-24 19:38:00,
2013-06-24 15:44:00,89.7,66.2,29.90,NNE,24,3.2,5.3,46,0.00,,SCT200,0.00,VWS V14.01,2013-06-24 19:44:00,
2013-06-24 15:50:00,90.7,65.1,29.90,NW,322,2.5,8.6,43,0.00,,SCT200,0.00,VWS V14.01,2013-06-24 19:50:00,
2013-06-24 15:56:00,89.9,67.2,29.90,WNW,287,4.6,6.4,47,0.00,,SCT200,0.00,VWS V14.01,2013-06-24 19:56:00,
2013-06-24 16:04:00,90.3,63.9,29.89,SW,228,4.7,8.2,42,0.00,,SCT200,0.00,VWS V14.01,2013-06-24 20:04:00,
2013-06-24 16:11:00,90.6,65.1,29.89,West,259,4.9,5.8,43,0.00,,SCT200,0.00,VWS V14.01,2013-06-24 20:11:00,
2013-06-24 16:17:00,91.0,63.8,29.89,West,259,6.2,8.4,41,0.00,,SCT200,0.00,VWS V14.01,2013-06-24 20:17:00,
2013-06-24 16:23:00,90.8,63.8,29.89,WSW,256,5.9,7.3,41,0.00,,SCT200,0.00,VWS V14.01,2013-06-24 20:23:00,
2013-06-24 16:31:00,89.9,64.4,29.89,West,267,4.9,6.8,43,0.00,,SCT200,0.00,VWS V14.01,2013-06-24 20:31:00,
2013-06-24 16:37:00,90.0,67.0,29.89,North,8,2.5,4.7,47,0.00,,SCT200,0.00,VWS V14.01,2013-06-24 20:37:00,
2013-06-24 16:44:00,88.9,68.7,29.89,East,79,2.9,4.7,52,0.00,,SCT200,0.00,VWS V14.01,2013-06-24 20:44:00,
2013-06-24 16:50:00,89.8,64.3,29.89,WSW,250,4.0,8.0,43,0.00,,SCT200,0.00,VWS V14.01,2013-06-24 20:50:00,
2013-06-24 16:56:00,89.9,66.4,29.88,West,273,2.5,6.7,46,0.00,,SCT200,0.00,VWS V14.01,2013-06-24 20:56:00,
2013-06-24 17:02:00,89.7,65.6,29.88,NW,309,4.1,5.1,45,0.00,,SCT200,0.00,VWS V14.01,2013-06-24 21:02:00,
2013-06-24 17:08:00,88.9,65.8,29.88,South,177,3.2,5.0,47,0.00,,SCT200,0.00,VWS V14.01,2013-06-24 21:08:00,
2013-06-24 17:13:00,89.7,63.9,29.88,NNW,332,2.5,5.4,42,0.00,,SCT200,0.00,VWS V14.01,2013-06-24 21:13:00,
2013-06-24 17:22:00,89.6,64.6,29.88,WSW,245,6.9,7.0,44,0.00,,SCT200,0.00,VWS V14.01,2013-06-24 21:22:00,
2013-06-24 17:27:00,90.2,64.0,29.88,NW,318,3.9,5.2,42,0.00,,SCT200,0.00,VWS V14.01,2013-06-24 21:27:00,
2013-06-24 17:33:00,90.3,65.1,29.88,West,278,4.6,9.2,44,0.00,,SCT200,0.00,VWS V14.01,2013-06-24 21:33:00,
2013-06-24 17:41:00,90.2,66.3,29.88,NW,318,4.4,5.7,45,0.00,,SCT200,0.00,VWS V14.01,2013-06-24 21:41:00,
2013-06-24 17:47:00,90.1,63.0,29.88,NW,326,3.0,6.6,41,0.00,,SCT200,0.00,VWS V14.01,2013-06-24 21:47:00,
2013-06-24 17:54:00,89.8,62.3,29.88,WSW,242,3.4,8.1,40,0.00,,SCT200,0.00,VWS V14.01,2013-06-24 21:54:00,
2013-06-24 18:00:00,89.5,64.1,29.88,NNW,330,2.5,5.7,43,0.00,,SCT200,0.00,VWS V14.01,2013-06-24 22:00:00,
2013-06-24 18:06:00,89.5,64.9,29.88,WSW,239,2.5,5.1,44,0.00,,SCT200,0.00,VWS V14.01,2013-06-24 22:06:00,
2013-06-24 18:12:00,88.8,65.2,29.88,West,277,4.0,7.1,46,0.00,,SCT200,0.00,VWS V14.01,2013-06-24 22:12:00,
2013-06-24 18:17:00,89.1,64.0,29.88,WSW,252,3.2,8.7,44,0.00,,SCT200,0.00,VWS V14.01,2013-06-24 22:17:00,
2013-06-24 18:23:00,88.9,65.5,29.89,NNW,343,2.5,3.1,46,0.00,,SCT200,0.00,VWS V14.01,2013-06-24 22:23:00,
2013-06-24 18:29:00,88.2,64.9,29.88,West,276,2.5,4.8,46,0.00,,SCT200,0.00,VWS V14.01,2013-06-24 22:29:00,
2013-06-24 18:35:00,87.5,66.8,29.89,SW,224,2.5,5.4,50,0.00,,SCT200,0.00,VWS V14.01,2013-06-24 22:35:00,
2013-06-24 18:41:00,86.9,66.6,29.89,NNW,339,2.5,7.2,51,0.00,,SCT200,0.00,VWS V14.01,2013-06-24 22:41:00,
2013-06-24 18:54:00,87.6,66.1,29.89,West,262,2.5,3.9,49,0.00,,SCT200,0.00,VWS V14.01,2013-06-24 22:54:00,
2013-06-24 19:00:00,86.7,67.2,29.89,North,11,2.5,3.5,52,0.00,,SCT200,0.00,VWS V14.01,2013-06-24 23:00:00,
2013-06-24 19:06:00,86.5,68.5,29.89,WSW,255,2.5,2.5,55,0.00,,BKN200,0.00,VWS V14.01,2013-06-24 23:06:00,
2013-06-24 19:11:00,86.1,67.5,29.89,NNW,343,4.5,4.9,54,0.00,,BKN200,0.00,VWS V14.01,2013-06-24 23:11:00,
2013-06-24 19:17:00,86.0,67.1,29.89,WSW,239,2.5,3.7,53,0.00,,BKN200,0.00,VWS V14.01,2013-06-24 23:17:00,
2013-06-24 19:27:00,85.7,67.5,29.89,WNW,292,6.2,6.2,55,0.00,,BKN200,0.00,VWS V14.01,2013-06-24 23:27:00,
2013-06-24 19:33:00,85.2,67.8,29.89,NNE,14,4.8,8.7,56,0.00,,BKN200,0.00,VWS V14.01,2013-06-24 23:33:00,
2013-06-24 19:39:00,85.4,68.8,29.89,SW,235,2.5,3.3,58,0.00,,BKN200,0.00,VWS V14.01,2013-06-24 23:39:00,
2013-06-24 19:45:00,84.7,69.8,29.89,West,270,2.5,3.6,61,0.00,,BKN200,0.00,VWS V14.01,2013-06-24 23:45:00,
2013-06-24 19:54:00,84.2,71.1,29.89,WSW,242,2.5,2.5,65,0.00,,BKN200,0.00,VWS V14.01,2013-06-24 23:54:00,
2013-06-24 20:00:00,83.6,71.8,29.89,WNW,290,2.5,6.0,68,0.00,,BKN200,0.00,VWS V14.01,2013-06-25 00:00:00,
2013-06-24 20:06:00,82.8,72.9,29.90,SW,233,2.5,5.9,72,0.00,,BKN200,0.00,VWS V14.01,2013-06-25 00:06:00,
2013-06-24 20:11:00,82.7,73.1,29.90,West,273,4.9,6.9,73,0.00,,BKN200,0.00,VWS V14.01,2013-06-25 00:11:00,
2013-06-24 20:17:00,82.5,74.1,29.91,NE,53,2.5,4.6,76,0.00,,OVC200,0.00,VWS V14.01,2013-06-25 00:17:00,
2013-06-24 20:24:00,82.1,74.5,29.91,NE,53,2.5,2.5,78,0.00,,OVC200,0.00,VWS V14.01,2013-06-25 00:24:00,
2013-06-24 20:29:00,78.4,68.4,29.94,NE,39,12.1,16.2,71,0.00,,OVC200,0.00,VWS V14.01,2013-06-25 00:29:00,
2013-06-24 20:35:00,73.8,68.6,29.95,NNE,30,8.0,12.4,84,0.00,,OVC200,0.00,VWS V14.01,2013-06-25 00:35:00,
2013-06-24 20:41:00,72.6,68.6,29.95,East,82,5.4,11.8,87,0.00,,OVC200,0.00,VWS V14.01,2013-06-25 00:41:00,
2013-06-24 20:47:00,72.1,69.4,29.94,NE,56,5.4,8.2,91,0.00,,OVC200,0.00,VWS V14.01,2013-06-25 00:47:00,
2013-06-24 20:54:00,72.3,69.2,29.94,SSE,162,3.2,5.9,90,0.00,,OVC200,0.00,VWS V14.01,2013-06-25 00:54:00,
2013-06-24 21:02:00,72.2,69.1,29.97,NNW,342,5.2,8.0,90,0.00,,,0.00,VWS V14.01,2013-06-25 01:02:00,
2013-06-24 21:08:00,72.4,68.5,29.97,NE,39,11.2,15.4,88,0.00,,,0.00,VWS V14.01,2013-06-25 01:08:00,
2013-06-24 21:13:00,68.0,68.0,29.97,East,96,7.7,15.2,100,0.00,,,0.00,VWS V14.01,2013-06-25 01:13:00,
2013-06-24 21:23:00,67.5,67.5,30.02,NNW,335,3.3,7.9,100,0.00,,,0.00,VWS V14.01,2013-06-25 01:23:00,
2013-06-24 21:29:00,67.3,67.3,30.00,ENE,62,6.6,8.3,100,0.00,,,0.00,VWS V14.01,2013-06-25 01:29:00,
2013-06-24 21:36:00,67.2,0.0,29.99,NNW,333,4.1,8.0,0,0.00,,,0.00,VWS V14.01,2013-06-25 01:36:00,
2013-06-24 21:41:00,67.3,0.0,30.00,ESE,110,4.2,5.9,0,0.00,,,0.00,VWS V14.01,2013-06-25 01:41:00,
2013-06-24 21:47:00,67.2,0.0,30.00,NE,39,2.5,3.1,0,0.00,,,0.00,VWS V14.01,2013-06-25 01:47:00,
2013-06-24 21:53:00,67.4,0.0,29.98,ESE,107,2.5,3.4,0,0.00,,,0.00,VWS V14.01,2013-06-25 01:53:00,
2013-06-24 21:59:00,67.1,0.0,29.97,ESE,107,2.5,3.1,0,0.00,,,0.00,VWS V14.01,2013-06-25 01:59:00,
2013-06-24 22:06:00,67.1,0.0,29.97,WNW,292,2.5,4.1,0,0.00,,-RA,0.00,VWS V14.01,2013-06-25 02:06:00,
2013-06-24 22:11:00,67.2,0.0,29.97,NW,318,2.5,2.5,0,0.00,,-RA,0.00,VWS V14.01,2013-06-25 02:11:00,
2013-06-24 22:17:00,67.3,0.0,29.96,NW,318,2.5,2.5,0,0.00,,-RA,0.00,VWS V14.01,2013-06-25 02:17:00,
2013-06-24 22:23:00,67.2,0.0,29.96,NW,318,2.5,2.5,0,0.00,,-RA,0.00,VWS V14.01,2013-06-25 02:23:00,
2013-06-24 22:29:00,67.3,0.0,29.96,NW,318,2.5,2.5,0,0.00,,-RA,0.00,VWS V14.01,2013-06-25 02:29:00,
2013-06-24 22:36:00,67.4,0.0,29.96,NW,318,2.5,2.5,0,0.00,,-RA,0.00,VWS V14.01,2013-06-25 02:36:00,
2013-06-24 22:41:00,67.4,0.0,29.96,West,266,2.5,2.5,0,0.00,,-RA,0.00,VWS V14.01,2013-06-25 02:41:00,
2013-06-24 22:47:00,67.3,0.0,29.95,West,266,2.5,2.5,0,0.00,,-RA,0.00,VWS V14.01,2013-06-25 02:47:00,
2013-06-24 22:53:00,67.4,0.0,29.95,West,266,2.5,2.5,0,0.00,,-RA,0.00,VWS V14.01,2013-06-25 02:53:00,
2013-06-24 22:59:00,67.4,0.0,29.95,West,266,2.5,2.5,0,0.00,,-RA,0.00,VWS V14.01,2013-06-25 02:59:00,
2013-06-24 23:05:00,67.4,0.0,29.94,West,266,2.5,2.5,0,0.00,,-RA,0.00,VWS V14.01,2013-06-25 03:05:00,
2013-06-24 23:12:00,67.5,0.0,29.94,West,266,2.5,2.5,0,0.00,,-RA,0.00,VWS V14.01,2013-06-25 03:12:00,
2013-06-24 23:17:00,67.3,0.0,29.94,West,266,2.5,2.5,0,0.00,,-RA,0.00,VWS V14.01,2013-06-25 03:17:00,
2013-06-24 23:23:00,67.1,0.0,29.94,West,266,2.5,2.5,0,0.00,,-RA,0.00,VWS V14.01,2013-06-25 03:23:00,
2013-06-24 23:29:00,67.2,0.0,29.94,West,278,2.5,2.5,0,0.00,,-RA,0.00,VWS V14.01,2013-06-25 03:29:00,
2013-06-24 23:37:00,67.1,0.0,29.93,West,264,2.5,2.5,0,0.00,,-RA,0.00,VWS V14.01,2013-06-25 03:37:00,
2013-06-24 23:44:00,66.9,0.0,29.93,NW,304,2.5,5.8,0,0.00,,-RA,0.00,VWS V14.01,2013-06-25 03:44:00,
2013-06-24 23:49:00,66.9,0.0,29.92,West,259,2.5,4.5,0,0.00,,-RA,0.00,VWS V14.01,2013-06-25 03:49:00,